createdAt,value
2019-04-11T00:00:43.760Z,8.30
2019-04-11T00:03:31.968Z,8.30
2019-04-11T00:06:20.453Z,8.30
2019-04-11T00:09:11.986Z,8.30
2019-04-11T00:12:00.084Z,8.30
2019-04-11T00:14:48.572Z,8.30
2019-04-11T00:17:36.654Z,8.30
2019-04-11T00:20:25.502Z,8.30
2019-04-11T00:23:14.258Z,8.30
2019-04-11T00:26:02.607Z,8.30
2019-04-11T00:28:50.491Z,8.20
2019-04-11T00:31:39.152Z,8.30
2019-04-11T00:34:27.049Z,8.30
2019-04-11T00:37:14.953Z,8.30
2019-04-11T00:40:03.908Z,8.30
2019-04-11T00:42:52.647Z,8.30
2019-04-11T00:45:40.336Z,8.30
2019-04-11T00:48:28.478Z,8.30
2019-04-11T00:51:17.643Z,8.30
2019-04-11T00:54:06.706Z,8.30
2019-04-11T00:56:55.309Z,8.30
2019-04-11T00:59:43.114Z,8.30
2019-04-11T01:02:31.552Z,8.30
2019-04-11T01:05:19.878Z,8.30
2019-04-11T01:08:07.751Z,8.30
2019-04-11T01:10:57.378Z,8.30
2019-04-11T01:13:50.947Z,8.30
2019-04-11T01:16:44.872Z,8.30
2019-04-11T01:19:33.022Z,8.30
2019-04-11T01:22:21.016Z,8.30
2019-04-11T01:25:10.361Z,8.30
2019-04-11T01:27:58.529Z,8.30
2019-04-11T01:30:57.636Z,8.20
2019-04-11T01:33:46.342Z,8.20
2019-04-11T01:36:35.328Z,8.20
2019-04-11T01:39:33.444Z,8.20
2019-04-11T01:42:22.778Z,8.20
2019-04-11T01:45:11.530Z,8.20
2019-04-11T01:48:22.145Z,8.20
2019-04-11T01:51:09.931Z,8.20
2019-04-11T01:53:59.366Z,8.20
2019-04-11T01:56:47.520Z,8.10
2019-04-11T01:59:35.747Z,8.10
2019-04-11T02:02:59.033Z,8.20
2019-04-11T02:05:47.601Z,8.20
2019-04-11T02:08:35.575Z,8.10
2019-04-11T02:11:24.181Z,8.00
2019-04-11T02:14:16.149Z,8.10
2019-04-11T02:17:01.683Z,8.10
2019-04-11T02:19:50.224Z,8.10
2019-04-11T02:22:55.061Z,8.10
2019-04-11T02:26:05.177Z,8.10
2019-04-11T02:28:53.051Z,8.10
2019-04-11T02:31:42.419Z,8.00
2019-04-11T02:34:31.547Z,8.00
2019-04-11T02:37:19.841Z,8.00
2019-04-11T02:40:08.942Z,8.00
2019-04-11T02:42:57.420Z,8.00
2019-04-11T02:45:58.544Z,8.00
2019-04-11T02:48:36.116Z,8.10
2019-04-11T02:51:25.006Z,8.10
2019-04-11T02:54:15.991Z,8.00
2019-04-11T02:57:05.572Z,8.00
2019-04-11T02:59:55.482Z,8.00
2019-04-11T03:02:44.488Z,8.00
2019-04-11T03:05:34.529Z,8.00
2019-04-11T03:08:22.739Z,8.00
2019-04-11T03:11:11.203Z,8.00
2019-04-11T03:14:01.273Z,8.00
2019-04-11T03:16:57.574Z,8.00
2019-04-11T03:19:54.718Z,7.90
2019-04-11T03:22:29.862Z,8.00
2019-04-11T03:25:18.178Z,7.90
2019-04-11T03:28:12.066Z,7.90
2019-04-11T03:31:26.790Z,7.90
2019-04-11T03:34:51.942Z,7.90
2019-04-11T03:37:13.549Z,7.90
2019-04-11T03:39:48.787Z,7.90
2019-04-11T03:42:34.386Z,7.90
2019-04-11T03:45:26.145Z,7.90
2019-04-11T03:48:11.016Z,7.90
2019-04-11T03:50:46.619Z,7.80
2019-04-11T03:53:36.661Z,7.80
2019-04-11T03:56:26.459Z,7.80
2019-04-11T03:59:16.598Z,7.80
2019-04-11T04:02:05.818Z,7.80
2019-04-11T04:04:54.228Z,7.90
2019-04-11T04:07:44.150Z,7.80
2019-04-11T04:10:34.058Z,7.90
2019-04-11T04:13:23.226Z,7.80
2019-04-11T04:16:31.038Z,7.70
2019-04-11T04:19:49.963Z,7.60
2019-04-11T04:23:03.188Z,7.50
2019-04-11T04:25:51.669Z,7.40
2019-04-11T04:28:40.889Z,7.30
2019-04-11T04:31:30.638Z,7.30
2019-04-11T04:34:19.671Z,7.30
2019-04-11T04:37:08.266Z,7.30
2019-04-11T04:40:21.621Z,7.30
2019-04-11T04:42:52.095Z,7.30
2019-04-11T04:45:59.737Z,7.30
2019-04-11T04:48:29.246Z,7.20
2019-04-11T04:51:18.317Z,7.20
2019-04-11T04:54:06.162Z,7.20
2019-04-11T04:56:56.081Z,7.10
2019-04-11T04:59:44.807Z,7.10
2019-04-11T05:02:35.047Z,7.10
2019-04-11T05:05:24.222Z,7.10
2019-04-11T05:08:12.582Z,7.10
2019-04-11T05:11:02.195Z,7.10
2019-04-11T05:13:51.808Z,7.00
2019-04-11T05:16:39.916Z,7.00
2019-04-11T05:19:28.585Z,6.90
2019-04-11T05:22:17.043Z,6.90
2019-04-11T05:25:05.476Z,6.90
2019-04-11T05:27:54.037Z,6.90
2019-04-11T05:30:42.275Z,7.00
2019-04-11T05:33:31.470Z,6.90
2019-04-11T05:36:20.638Z,7.00
2019-04-11T05:39:10.501Z,6.90
2019-04-11T05:41:58.742Z,6.90
2019-04-11T05:44:47.073Z,6.90
2019-04-11T05:47:37.240Z,6.90
2019-04-11T05:50:30.309Z,6.90
2019-04-11T05:53:19.941Z,6.70
2019-04-11T05:56:09.168Z,6.70
2019-04-11T05:59:01.921Z,6.80
2019-04-11T06:01:54.954Z,6.80
2019-04-11T06:04:50.118Z,6.70
2019-04-11T06:07:57.600Z,6.70
2019-04-11T06:11:07.335Z,6.60
2019-04-11T06:14:20.261Z,6.60
2019-04-11T06:17:11.488Z,6.50
2019-04-11T06:20:19.823Z,6.50
2019-04-11T06:23:25.673Z,6.50
2019-04-11T06:26:34.559Z,6.60
2019-04-11T06:29:28.386Z,6.60
2019-04-11T06:32:34.141Z,6.50
2019-04-11T06:35:41.101Z,6.50
2019-04-11T06:38:55.141Z,6.50
2019-04-11T06:42:05.872Z,6.50
2019-04-11T06:45:29.314Z,6.50
2019-04-11T06:48:42.556Z,6.50
2019-04-11T06:51:34.056Z,6.40
2019-04-11T06:54:41.397Z,6.50
2019-04-11T06:57:30.040Z,6.40
2019-04-11T07:00:18.122Z,6.50
2019-04-11T07:03:17.425Z,6.50
2019-04-11T07:05:57.380Z,6.40
2019-04-11T07:08:56.752Z,6.50
2019-04-11T07:11:48.476Z,6.50
2019-04-11T07:14:53.422Z,6.60
2019-04-11T07:18:00.940Z,6.60
2019-04-11T07:21:06.318Z,6.60
2019-04-11T07:24:12.553Z,6.60
2019-04-11T07:27:06.057Z,6.50
2019-04-11T07:30:13.511Z,6.50
2019-04-11T07:33:18.086Z,6.50
2019-04-11T07:36:23.821Z,6.50
2019-04-11T07:39:31.156Z,6.50
2019-04-11T07:42:41.108Z,6.60
2019-04-11T07:45:40.203Z,6.70
2019-04-11T07:48:35.758Z,6.70
2019-04-11T07:51:32.136Z,6.80
2019-04-11T07:54:22.456Z,6.80
2019-04-11T07:57:24.673Z,6.80
2019-04-11T08:00:38.555Z,6.80
2019-04-11T08:03:39.949Z,6.80
2019-04-11T08:06:56.355Z,6.90
2019-04-11T08:09:57.150Z,6.90
2019-04-11T08:12:45.895Z,7.10
2019-04-11T08:15:51.628Z,7.20
2019-04-11T08:19:10.661Z,7.20
2019-04-11T08:22:08.459Z,7.20
2019-04-11T08:25:16.081Z,7.20
2019-04-11T08:28:07.931Z,7.20
2019-04-11T08:31:26.535Z,7.10
2019-04-11T08:34:15.252Z,7.20
2019-04-11T08:37:23.290Z,7.30
2019-04-11T08:40:11.850Z,7.40
2019-04-11T08:43:11.024Z,7.40
2019-04-11T08:46:06.715Z,7.50
2019-04-11T08:48:57.497Z,7.40
2019-04-11T08:51:45.719Z,7.40
2019-04-11T08:54:58.012Z,7.20
2019-04-11T08:57:56.509Z,7.20
2019-04-11T09:00:59.304Z,7.20
2019-04-11T09:04:15.639Z,7.30
2019-04-11T09:07:05.203Z,7.20
2019-04-11T09:10:22.052Z,7.20
2019-04-11T09:13:18.076Z,7.10
2019-04-11T09:16:25.445Z,7.20
2019-04-11T09:19:21.491Z,7.20
2019-04-11T09:22:31.169Z,7.30
2019-04-11T09:25:39.069Z,7.40
2019-04-11T09:28:53.468Z,7.30
2019-04-11T09:32:11.562Z,7.40
2019-04-11T09:35:06.170Z,7.30
2019-04-11T09:37:54.829Z,7.30
2019-04-11T09:40:50.091Z,7.30
2019-04-11T09:43:38.274Z,7.20
2019-04-11T09:46:40.745Z,7.20
2019-04-11T09:49:36.655Z,7.00
2019-04-11T09:52:40.930Z,7.00
2019-04-11T09:55:40.107Z,7.00
2019-04-11T09:58:28.312Z,7.00
2019-04-11T10:01:30.958Z,7.00
2019-04-11T10:04:19.408Z,7.00
2019-04-11T10:07:41.955Z,7.10
2019-04-11T10:10:40.308Z,7.10
2019-04-11T10:13:53.251Z,7.20
2019-04-11T10:17:00.146Z,7.20
2019-04-11T10:19:51.957Z,7.20
2019-04-11T10:22:58.417Z,7.20
2019-04-11T10:25:51.769Z,7.20
2019-04-11T10:28:55.115Z,7.10
2019-04-11T10:31:44.887Z,7.20
2019-04-11T10:34:43.904Z,7.10
2019-04-11T10:37:33.868Z,7.00
2019-04-11T10:40:50.393Z,7.00
2019-04-11T10:43:38.237Z,7.00
2019-04-11T10:46:37.543Z,7.10
2019-04-11T10:49:44.355Z,7.00
2019-04-11T10:52:36.445Z,7.00
2019-04-11T10:55:29.412Z,7.00
2019-04-11T10:58:24.728Z,6.90
2019-04-11T11:01:37.979Z,6.90
2019-04-11T11:04:41.068Z,6.90
2019-04-11T11:07:31.358Z,6.90
2019-04-11T11:10:23.742Z,7.00
2019-04-11T11:13:23.555Z,7.00
2019-04-11T11:16:11.945Z,7.00
2019-04-11T11:19:50.123Z,7.10
2019-04-11T11:22:48.164Z,7.20
2019-04-11T11:25:49.766Z,7.20
2019-04-11T11:28:43.226Z,7.20
2019-04-11T11:31:36.435Z,7.30
2019-04-11T11:34:49.271Z,7.30
2019-04-11T11:37:47.208Z,7.30
2019-04-11T11:40:54.222Z,7.40
2019-04-11T11:43:43.241Z,7.50
2019-04-11T11:46:59.827Z,7.50
2019-04-11T11:49:55.551Z,7.60
2019-04-11T11:52:51.255Z,7.50
2019-04-11T11:55:41.150Z,7.50
2019-04-11T11:58:55.408Z,7.60
2019-04-11T12:01:49.306Z,7.60
2019-04-11T12:04:54.047Z,7.70
2019-04-11T12:07:51.460Z,7.70
2019-04-11T12:10:55.693Z,7.70
2019-04-11T12:14:11.725Z,7.70
2019-04-11T12:17:18.598Z,7.80
2019-04-11T12:20:14.935Z,7.90
2019-04-11T12:23:06.554Z,7.90
2019-04-11T12:25:55.734Z,7.90
2019-04-11T12:29:12.187Z,8.10
2019-04-11T12:32:02.586Z,8.20
2019-04-11T12:35:04.098Z,8.30
2019-04-11T12:37:57.892Z,8.30
2019-04-11T12:41:04.169Z,8.30
2019-04-11T12:44:30.372Z,8.40
2019-04-11T12:47:22.532Z,8.50
2019-04-11T12:50:30.960Z,8.50
2019-04-11T12:53:20.703Z,8.60
2019-04-11T12:56:28.073Z,8.60
2019-04-11T12:59:20.511Z,8.50
2019-04-11T13:02:43.297Z,8.50
2019-04-11T13:05:31.947Z,8.60
2019-04-11T13:08:47.753Z,8.60
2019-04-11T13:11:36.644Z,8.70
2019-04-11T13:15:02.169Z,8.80
2019-04-11T13:18:06.662Z,8.70
2019-04-11T13:21:16.246Z,8.80
2019-04-11T13:24:21.361Z,8.90
2019-04-11T13:27:24.303Z,9.00
2019-04-11T13:30:45.867Z,9.10
2019-04-11T13:33:34.086Z,9.30
2019-04-11T13:36:40.446Z,9.60
2019-04-11T13:39:31.518Z,9.70
2019-04-11T13:42:27.873Z,9.60
2019-04-11T13:45:16.245Z,9.30
2019-04-11T13:48:22.458Z,9.30
2019-04-11T13:51:19.237Z,9.20
2019-04-11T13:54:25.158Z,8.90
2019-04-11T13:57:41.400Z,8.70
2019-04-11T14:00:47.278Z,8.40
2019-04-11T14:04:00.037Z,8.20
2019-04-11T14:06:50.799Z,8.40
2019-04-11T14:09:45.518Z,8.40
2019-04-11T14:12:34.102Z,8.30
2019-04-11T14:15:22.295Z,8.40
2019-04-11T14:18:28.735Z,8.40
2019-04-11T14:21:21.457Z,8.30
2019-04-11T14:24:30.611Z,8.30
2019-04-11T14:27:25.261Z,8.40
2019-04-11T14:30:31.132Z,8.50
2019-04-11T14:33:19.139Z,8.50
2019-04-11T14:36:33.272Z,8.50
2019-04-11T14:39:16.138Z,8.30
2019-04-11T14:42:25.865Z,8.40
2019-04-11T14:45:36.686Z,8.30
2019-04-11T14:48:42.667Z,8.50
2019-04-11T14:51:59.118Z,8.60
2019-04-11T14:54:49.861Z,8.80
2019-04-11T14:57:46.942Z,8.80
2019-04-11T15:00:37.260Z,8.80
2019-04-11T15:03:43.391Z,8.60
2019-04-11T15:06:34.462Z,8.70
2019-04-11T15:09:37.791Z,8.80
2019-04-11T15:12:27.018Z,8.80
2019-04-11T15:15:39.090Z,8.90
2019-04-11T15:18:27.529Z,8.90
2019-04-11T15:21:23.253Z,8.80
2019-04-11T15:24:11.802Z,8.60
2019-04-11T15:27:31.282Z,8.70
2019-04-11T15:30:19.720Z,8.60
2019-04-11T15:33:25.815Z,8.70
2019-04-11T15:36:14.953Z,8.80
2019-04-11T15:39:20.880Z,8.80
2019-04-11T15:42:10.976Z,8.90
2019-04-11T15:45:17.370Z,9.00
2019-04-11T15:48:27.349Z,9.10
2019-04-11T15:51:35.118Z,9.20
2019-04-11T15:54:42.464Z,9.20
2019-04-11T15:57:34.960Z,9.30
2019-04-11T16:00:51.438Z,9.30
2019-04-11T16:03:39.854Z,9.30
2019-04-11T16:06:46.539Z,9.30
2019-04-11T16:09:37.070Z,9.30
2019-04-11T16:12:31.576Z,9.20
2019-04-11T16:15:19.480Z,9.20
2019-04-11T16:18:38.790Z,9.20
2019-04-11T16:21:36.017Z,9.20
2019-04-11T16:24:30.135Z,9.20
2019-04-11T16:27:40.459Z,9.10
2019-04-11T16:30:28.253Z,9.00
2019-04-11T16:33:47.394Z,8.90
2019-04-11T16:37:00.626Z,8.90
2019-04-11T16:40:06.548Z,8.90
2019-04-11T16:43:01.172Z,8.80
2019-04-11T16:46:07.190Z,8.70
2019-04-11T16:48:55.904Z,8.70
2019-04-11T16:51:44.779Z,8.60
2019-04-11T16:54:32.370Z,8.60
2019-04-11T16:57:20.435Z,8.50
2019-04-11T17:00:12.686Z,8.60
2019-04-11T17:03:01.004Z,8.50
2019-04-11T17:05:58.950Z,8.50
2019-04-11T17:09:05.631Z,8.50
2019-04-11T17:11:57.294Z,8.40
2019-04-11T17:14:45.556Z,8.40
2019-04-11T17:17:33.841Z,8.40
2019-04-11T17:20:24.479Z,8.40
2019-04-11T17:23:17.342Z,8.40
2019-04-11T17:26:06.770Z,8.30
2019-04-11T17:28:59.991Z,8.40
2019-04-11T17:31:48.858Z,8.40
2019-04-11T17:34:37.143Z,8.40
2019-04-11T17:37:28.223Z,8.40
2019-04-11T17:40:16.355Z,8.30
2019-04-11T17:43:04.540Z,8.30
2019-04-11T17:45:52.391Z,8.30
2019-04-11T17:48:40.523Z,8.20
2019-04-11T17:51:29.078Z,8.20
2019-04-11T17:54:16.760Z,8.20
2019-04-11T17:57:04.750Z,8.10
2019-04-11T17:59:52.692Z,8.10
2019-04-11T18:02:54.234Z,8.00
2019-04-11T18:05:41.798Z,8.10
2019-04-11T18:08:30.003Z,8.00
2019-04-11T18:11:19.161Z,8.00
2019-04-11T18:14:07.051Z,8.00
2019-04-11T18:16:55.717Z,8.00
2019-04-11T18:19:45.187Z,7.90
2019-04-11T18:22:33.316Z,7.90
2019-04-11T18:25:21.596Z,7.90
2019-04-11T18:28:09.471Z,7.90
2019-04-11T18:30:57.318Z,7.90
2019-04-11T18:33:45.383Z,7.90
2019-04-11T18:36:33.828Z,7.80
2019-04-11T18:39:22.044Z,7.80
2019-04-11T18:42:10.189Z,7.80
2019-04-11T18:44:58.358Z,7.80
2019-04-11T18:47:46.022Z,7.80
2019-04-11T18:50:33.705Z,7.80
2019-04-11T18:53:21.471Z,7.80
2019-04-11T18:56:08.929Z,7.80
2019-04-11T18:58:56.687Z,7.80
2019-04-11T19:01:44.518Z,7.80
2019-04-11T19:04:33.045Z,7.80
2019-04-11T19:07:27.697Z,7.70
2019-04-11T19:10:14.550Z,7.70
2019-04-11T19:13:01.052Z,7.70
2019-04-11T19:15:49.380Z,7.70
2019-04-11T19:18:37.590Z,7.70
2019-04-11T19:21:25.222Z,7.70
2019-04-11T19:24:13.146Z,7.70
2019-04-11T19:27:01.020Z,7.70
2019-04-11T19:29:48.683Z,7.70
2019-04-11T19:32:38.790Z,7.70
2019-04-11T19:35:26.196Z,7.70
2019-04-11T19:38:29.190Z,7.70
2019-04-11T19:41:18.137Z,7.60
2019-04-11T19:44:06.336Z,7.50
2019-04-11T19:46:54.194Z,7.50
2019-04-11T19:49:42.303Z,7.50
2019-04-11T19:52:32.631Z,7.60
2019-04-11T19:55:28.627Z,7.50
2019-04-11T19:58:17.510Z,7.50
2019-04-11T20:01:05.506Z,7.50
2019-04-11T20:03:54.032Z,7.60
2019-04-11T20:06:42.460Z,7.50
2019-04-11T20:09:29.908Z,7.50
2019-04-11T20:12:17.752Z,7.50
2019-04-11T20:15:08.731Z,7.50
2019-04-11T20:17:55.614Z,7.50
2019-04-11T20:20:43.775Z,7.50
2019-04-11T20:23:31.785Z,7.50
2019-04-11T20:26:20.860Z,7.50
2019-04-11T20:29:08.854Z,7.50
2019-04-11T20:31:56.672Z,7.50
2019-04-11T20:34:45.190Z,7.50
2019-04-11T20:37:39.120Z,7.50
2019-04-11T20:40:23.122Z,7.40
2019-04-11T20:43:11.313Z,7.40
2019-04-11T20:45:59.188Z,7.40
2019-04-11T20:48:47.170Z,7.40
2019-04-11T20:51:35.200Z,7.40
2019-04-11T20:54:22.948Z,7.40
2019-04-11T20:57:12.225Z,7.40
2019-04-11T21:00:00.635Z,7.40
2019-04-11T21:02:48.399Z,7.40
2019-04-11T21:05:36.491Z,7.30
2019-04-11T21:08:23.708Z,7.20
2019-04-11T21:11:11.295Z,7.20
2019-04-11T21:13:58.887Z,7.20
2019-04-11T21:16:46.485Z,7.20
2019-04-11T21:19:34.127Z,7.10
2019-04-11T21:22:24.185Z,7.10
2019-04-11T21:25:14.021Z,7.10
2019-04-11T21:28:01.671Z,7.10
2019-04-11T21:30:49.707Z,7.00
2019-04-11T21:33:38.180Z,7.00
2019-04-11T21:36:27.027Z,7.00
2019-04-11T21:39:14.729Z,6.90
2019-04-11T21:42:05.891Z,6.90
2019-04-11T21:44:52.528Z,6.90
2019-04-11T21:47:40.340Z,6.90
2019-04-11T21:50:27.860Z,6.90
2019-04-11T21:53:16.153Z,6.80
2019-04-11T21:56:03.918Z,6.80
2019-04-11T21:58:52.095Z,6.80
2019-04-11T22:01:42.598Z,6.80
2019-04-11T22:04:31.176Z,6.70
2019-04-11T22:07:19.543Z,6.70
2019-04-11T22:10:08.441Z,6.70
2019-04-11T22:12:56.289Z,6.70
2019-04-11T22:15:43.876Z,6.70
2019-04-11T22:18:31.445Z,6.70
2019-04-11T22:21:19.355Z,6.70
2019-04-11T22:24:07.137Z,6.60
2019-04-11T22:26:54.843Z,6.60
2019-04-11T22:29:42.763Z,6.60
2019-04-11T22:32:30.813Z,6.60
2019-04-11T22:35:18.484Z,6.60
2019-04-11T22:38:05.759Z,6.70
2019-04-11T22:40:53.386Z,6.60
2019-04-11T22:43:41.428Z,6.60
2019-04-11T22:46:29.646Z,6.60
2019-04-11T22:49:17.552Z,6.60
2019-04-11T22:52:05.745Z,6.50
2019-04-11T22:54:53.736Z,6.50
2019-04-11T22:57:43.699Z,6.50
2019-04-11T23:00:30.947Z,6.40
2019-04-11T23:03:22.341Z,6.40
2019-04-11T23:06:10.351Z,6.40
2019-04-11T23:08:57.909Z,6.40
2019-04-11T23:11:46.073Z,6.40
2019-04-11T23:14:33.776Z,6.40
2019-04-11T23:17:21.535Z,6.40
2019-04-11T23:20:09.559Z,6.40
2019-04-11T23:22:57.132Z,6.30
2019-04-11T23:25:44.643Z,6.40
2019-04-11T23:28:32.219Z,6.30
2019-04-11T23:31:20.857Z,6.30
2019-04-11T23:34:09.355Z,6.30
2019-04-11T23:36:56.491Z,6.30
2019-04-11T23:39:44.304Z,6.30
2019-04-11T23:42:32.068Z,6.30
2019-04-11T23:45:23.314Z,6.20
2019-04-11T23:48:10.731Z,6.20
2019-04-11T23:50:58.627Z,6.20
2019-04-11T23:53:45.871Z,6.20
2019-04-11T23:56:34.318Z,6.20
2019-04-11T23:59:22.169Z,6.20
